Terminal Aerodrome Forecast
Issued by NWS Lake Charles, LA

Current Version | Previous Version | Text Only | Print | Product List | Glossary On
Versions: 1 2 3 4 5 6 7 8 9 10 11 12 13 14 15 16 17 18
131
FTUS44 KLCH 280520
TAFARA
TAF
KARA 280520Z 2806/2906 14004KT P6SM FEW013 BKN022 OVC040
      TEMPO 2806/2810 4SM BR FEW008 BKN013
     FM281000 VRB04KT 4SM BR OVC009
      TEMPO 2811/2815 FEW007 BKN015
     FM281500 16008KT P6SM BKN015
     FM281800 16010KT P6SM BKN050
     FM282000 17011KT P6SM BKN250=

USA.gov is the U.S. government's official web portal to all federal, state and local government web resources and services.